sensor_id;sensor_type;location;lat;lon;timestamp;P1;durP1;ratioP1;P2;durP2;ratioP2
43803;SDS011;29430;52.924;-2.388;2023-07-31T00:02:58;1.20;;;0.20;;
43803;SDS011;29430;52.924;-2.388;2023-07-31T00:07:50;0.77;;;0.20;;
43803;SDS011;29430;52.924;-2.388;2023-07-31T00:12:43;0.28;;;0.10;;
43803;SDS011;29430;52.924;-2.388;2023-07-31T00:17:36;0.50;;;0.20;;
43803;SDS011;29430;52.924;-2.388;2023-07-31T00:22:28;0.30;;;0.10;;
43803;SDS011;29430;52.924;-2.388;2023-07-31T00:27:20;0.55;;;0.13;;
43803;SDS011;29430;52.924;-2.388;2023-07-31T00:32:12;0.52;;;0.40;;
43803;SDS011;29430;52.924;-2.388;2023-07-31T00:37:03;0.68;;;0.17;;
43803;SDS011;29430;52.924;-2.388;2023-07-31T00:41:56;1.20;;;0.10;;
43803;SDS011;29430;52.924;-2.388;2023-07-31T00:46:48;0.60;;;0.20;;
43803;SDS011;29430;52.924;-2.388;2023-07-31T00:51:40;0.38;;;0.10;;
43803;SDS011;29430;52.924;-2.388;2023-07-31T00:56:31;0.30;;;0.10;;
43803;SDS011;29430;52.924;-2.388;2023-07-31T01:01:24;0.50;;;0.10;;
43803;SDS011;29430;52.924;-2.388;2023-07-31T01:11:19;0.93;;;0.10;;
43803;SDS011;29430;52.924;-2.388;2023-07-31T01:16:17;0.52;;;0.10;;
43803;SDS011;29430;52.924;-2.388;2023-07-31T01:26:28;0.40;;;0.10;;
43803;SDS011;29430;52.924;-2.388;2023-07-31T01:31:25;0.98;;;0.10;;
43803;SDS011;29430;52.924;-2.388;2023-07-31T01:36:17;1.08;;;0.10;;
43803;SDS011;29430;52.924;-2.388;2023-07-31T01:41:09;0.90;;;0.05;;
43803;SDS011;29430;52.924;-2.388;2023-07-31T01:46:00;0.10;;;0.00;;
43803;SDS011;29430;52.924;-2.388;2023-07-31T01:50:52;0.10;;;0.00;;
43803;SDS011;29430;52.924;-2.388;2023-07-31T01:55:44;0.40;;;0.08;;
43803;SDS011;29430;52.924;-2.388;2023-07-31T02:00:36;1.55;;;0.00;;
43803;SDS011;29430;52.924;-2.388;2023-07-31T02:05:27;0.50;;;0.10;;
43803;SDS011;29430;52.924;-2.388;2023-07-31T02:10:19;1.85;;;0.00;;
43803;SDS011;29430;52.924;-2.388;2023-07-31T02:15:11;0.88;;;0.00;;
43803;SDS011;29430;52.924;-2.388;2023-07-31T02:20:03;0.45;;;0.00;;
43803;SDS011;29430;52.924;-2.388;2023-07-31T02:24:55;0.15;;;0.03;;
43803;SDS011;29430;52.924;-2.388;2023-07-31T02:29:47;0.10;;;0.00;;
43803;SDS011;29430;52.924;-2.388;2023-07-31T02:34:38;0.17;;;0.00;;
43803;SDS011;29430;52.924;-2.388;2023-07-31T02:39:30;0.38;;;0.00;;
43803;SDS011;29430;52.924;-2.388;2023-07-31T02:44:22;0.38;;;0.00;;
43803;SDS011;29430;52.924;-2.388;2023-07-31T02:49:14;0.30;;;0.10;;
43803;SDS011;29430;52.924;-2.388;2023-07-31T02:54:05;1.17;;;0.10;;
43803;SDS011;29430;52.924;-2.388;2023-07-31T02:58:57;0.30;;;0.10;;
43803;SDS011;29430;52.924;-2.388;2023-07-31T03:03:49;0.93;;;0.10;;
43803;SDS011;29430;52.924;-2.388;2023-07-31T03:08:40;1.83;;;0.20;;
43803;SDS011;29430;52.924;-2.388;2023-07-31T03:13:32;2.00;;;0.28;;
43803;SDS011;29430;52.924;-2.388;2023-07-31T03:18:24;3.83;;;0.70;;
43803;SDS011;29430;52.924;-2.388;2023-07-31T03:23:15;3.90;;;0.50;;
43803;SDS011;29430;52.924;-2.388;2023-07-31T03:28:07;1.67;;;0.40;;
43803;SDS011;29430;52.924;-2.388;2023-07-31T03:32:59;3.40;;;0.60;;
43803;SDS011;29430;52.924;-2.388;2023-07-31T03:37:51;2.53;;;0.60;;
43803;SDS011;29430;52.924;-2.388;2023-07-31T03:42:42;1.45;;;0.40;;
43803;SDS011;29430;52.924;-2.388;2023-07-31T03:47:34;4.10;;;0.50;;
43803;SDS011;29430;52.924;-2.388;2023-07-31T03:52:26;2.95;;;0.50;;
43803;SDS011;29430;52.924;-2.388;2023-07-31T03:57:17;3.20;;;0.60;;
43803;SDS011;29430;52.924;-2.388;2023-07-31T04:02:09;1.58;;;0.50;;
43803;SDS011;29430;52.924;-2.388;2023-07-31T04:07:01;3.17;;;0.60;;
43803;SDS011;29430;52.924;-2.388;2023-07-31T04:11:53;4.15;;;0.50;;
43803;SDS011;29430;52.924;-2.388;2023-07-31T04:16:44;3.90;;;0.70;;
43803;SDS011;29430;52.924;-2.388;2023-07-31T04:21:36;4.68;;;1.20;;
43803;SDS011;29430;52.924;-2.388;2023-07-31T04:26:28;6.18;;;1.35;;
43803;SDS011;29430;52.924;-2.388;2023-07-31T04:31:19;2.85;;;1.00;;
43803;SDS011;29430;52.924;-2.388;2023-07-31T04:36:11;3.53;;;1.38;;
43803;SDS011;29430;52.924;-2.388;2023-07-31T04:41:03;5.03;;;1.30;;
43803;SDS011;29430;52.924;-2.388;2023-07-31T04:45:57;7.93;;;2.10;;
43803;SDS011;29430;52.924;-2.388;2023-07-31T04:50:49;9.30;;;2.35;;
43803;SDS011;29430;52.924;-2.388;2023-07-31T04:55:41;8.63;;;2.13;;
43803;SDS011;29430;52.924;-2.388;2023-07-31T05:00:32;7.95;;;2.30;;
43803;SDS011;29430;52.924;-2.388;2023-07-31T05:05:24;8.27;;;2.55;;
43803;SDS011;29430;52.924;-2.388;2023-07-31T05:10:16;7.32;;;2.83;;
43803;SDS011;29430;52.924;-2.388;2023-07-31T05:15:08;9.40;;;2.80;;
43803;SDS011;29430;52.924;-2.388;2023-07-31T05:20:00;11.90;;;3.35;;
43803;SDS011;29430;52.924;-2.388;2023-07-31T05:24:52;10.32;;;3.05;;
43803;SDS011;29430;52.924;-2.388;2023-07-31T05:29:45;8.05;;;3.05;;
43803;SDS011;29430;52.924;-2.388;2023-07-31T05:34:37;12.85;;;3.30;;
43803;SDS011;29430;52.924;-2.388;2023-07-31T05:39:28;10.02;;;3.80;;
43803;SDS011;29430;52.924;-2.388;2023-07-31T05:44:20;11.10;;;3.90;;
43803;SDS011;29430;52.924;-2.388;2023-07-31T05:49:12;13.40;;;3.63;;
43803;SDS011;29430;52.924;-2.388;2023-07-31T05:54:03;10.07;;;3.55;;
43803;SDS011;29430;52.924;-2.388;2023-07-31T05:58:55;9.10;;;3.22;;
43803;SDS011;29430;52.924;-2.388;2023-07-31T06:03:48;9.68;;;2.67;;
43803;SDS011;29430;52.924;-2.388;2023-07-31T06:08:40;10.07;;;3.30;;
43803;SDS011;29430;52.924;-2.388;2023-07-31T06:13:32;11.48;;;2.80;;
43803;SDS011;29430;52.924;-2.388;2023-07-31T06:18:23;7.90;;;2.38;;
43803;SDS011;29430;52.924;-2.388;2023-07-31T06:23:15;6.60;;;2.50;;
43803;SDS011;29430;52.924;-2.388;2023-07-31T06:28:09;7.38;;;1.85;;
43803;SDS011;29430;52.924;-2.388;2023-07-31T06:33:01;8.38;;;2.47;;
43803;SDS011;29430;52.924;-2.388;2023-07-31T06:37:53;8.48;;;1.77;;
43803;SDS011;29430;52.924;-2.388;2023-07-31T06:42:45;6.72;;;1.45;;
43803;SDS011;29430;52.924;-2.388;2023-07-31T06:47:36;6.95;;;1.15;;
43803;SDS011;29430;52.924;-2.388;2023-07-31T06:52:28;6.18;;;1.08;;
43803;SDS011;29430;52.924;-2.388;2023-07-31T06:57:20;5.88;;;1.00;;
43803;SDS011;29430;52.924;-2.388;2023-07-31T07:02:12;4.45;;;0.80;;
43803;SDS011;29430;52.924;-2.388;2023-07-31T07:07:03;5.20;;;1.00;;
43803;SDS011;29430;52.924;-2.388;2023-07-31T07:11:55;6.55;;;1.10;;
43803;SDS011;29430;52.924;-2.388;2023-07-31T07:16:50;7.55;;;1.25;;
43803;SDS011;29430;52.924;-2.388;2023-07-31T07:21:42;8.32;;;1.00;;
43803;SDS011;29430;52.924;-2.388;2023-07-31T07:26:34;3.55;;;1.00;;
43803;SDS011;29430;52.924;-2.388;2023-07-31T07:31:26;6.63;;;1.17;;
43803;SDS011;29430;52.924;-2.388;2023-07-31T07:36:17;8.60;;;0.95;;
43803;SDS011;29430;52.924;-2.388;2023-07-31T07:41:09;4.75;;;0.77;;
43803;SDS011;29430;52.924;-2.388;2023-07-31T07:46:01;6.25;;;0.95;;
43803;SDS011;29430;52.924;-2.388;2023-07-31T07:50:53;3.85;;;0.93;;
43803;SDS011;29430;52.924;-2.388;2023-07-31T07:55:45;5.88;;;0.85;;
43803;SDS011;29430;52.924;-2.388;2023-07-31T08:00:36;7.95;;;0.70;;
43803;SDS011;29430;52.924;-2.388;2023-07-31T08:05:28;6.80;;;0.80;;
43803;SDS011;29430;52.924;-2.388;2023-07-31T08:10:23;4.75;;;0.70;;
43803;SDS011;29430;52.924;-2.388;2023-07-31T08:15:15;6.10;;;0.90;;
43803;SDS011;29430;52.924;-2.388;2023-07-31T08:20:07;3.92;;;0.90;;
43803;SDS011;29430;52.924;-2.388;2023-07-31T08:24:59;3.72;;;0.60;;
43803;SDS011;29430;52.924;-2.388;2023-07-31T08:29:51;6.47;;;0.80;;
43803;SDS011;29430;52.924;-2.388;2023-07-31T08:34:43;3.15;;;0.68;;
43803;SDS011;29430;52.924;-2.388;2023-07-31T08:39:35;3.10;;;0.70;;
43803;SDS011;29430;52.924;-2.388;2023-07-31T08:44:31;5.60;;;0.80;;
43803;SDS011;29430;52.924;-2.388;2023-07-31T08:49:23;5.07;;;0.80;;
43803;SDS011;29430;52.924;-2.388;2023-07-31T08:54:16;7.35;;;0.70;;
43803;SDS011;29430;52.924;-2.388;2023-07-31T08:59:08;3.35;;;0.60;;
43803;SDS011;29430;52.924;-2.388;2023-07-31T09:04:00;3.88;;;0.70;;
43803;SDS011;29430;52.924;-2.388;2023-07-31T09:08:55;5.05;;;0.80;;
43803;SDS011;29430;52.924;-2.388;2023-07-31T09:13:47;6.00;;;1.05;;
43803;SDS011;29430;52.924;-2.388;2023-07-31T09:18:52;3.75;;;0.80;;
43803;SDS011;29430;52.924;-2.388;2023-07-31T09:23:46;4.32;;;0.70;;
43803;SDS011;29430;52.924;-2.388;2023-07-31T09:28:42;5.90;;;0.75;;
43803;SDS011;29430;52.924;-2.388;2023-07-31T09:33:34;3.92;;;0.75;;
43803;SDS011;29430;52.924;-2.388;2023-07-31T09:38:45;6.65;;;0.70;;
43803;SDS011;29430;52.924;-2.388;2023-07-31T09:43:37;4.35;;;0.90;;
43803;SDS011;29430;52.924;-2.388;2023-07-31T09:48:29;6.05;;;0.90;;
43803;SDS011;29430;52.924;-2.388;2023-07-31T09:53:28;6.63;;;0.80;;
43803;SDS011;29430;52.924;-2.388;2023-07-31T09:58:23;3.45;;;0.90;;
43803;SDS011;29430;52.924;-2.388;2023-07-31T10:03:18;3.55;;;0.77;;
43803;SDS011;29430;52.924;-2.388;2023-07-31T10:08:10;4.97;;;0.90;;
43803;SDS011;29430;52.924;-2.388;2023-07-31T10:13:06;5.38;;;0.77;;
43803;SDS011;29430;52.924;-2.388;2023-07-31T10:17:57;7.22;;;1.10;;
43803;SDS011;29430;52.924;-2.388;2023-07-31T10:22:50;5.45;;;0.88;;
43803;SDS011;29430;52.924;-2.388;2023-07-31T10:27:43;6.07;;;1.08;;
43803;SDS011;29430;52.924;-2.388;2023-07-31T10:32:34;7.20;;;1.23;;
43803;SDS011;29430;52.924;-2.388;2023-07-31T10:37:35;3.50;;;1.10;;
43803;SDS011;29430;52.924;-2.388;2023-07-31T10:42:29;7.30;;;1.08;;
43803;SDS011;29430;52.924;-2.388;2023-07-31T10:47:22;5.13;;;0.90;;
43803;SDS011;29430;52.924;-2.388;2023-07-31T10:52:16;6.15;;;0.93;;
43803;SDS011;29430;52.924;-2.388;2023-07-31T10:57:21;6.28;;;1.00;;
43803;SDS011;29430;52.924;-2.388;2023-07-31T11:02:26;8.23;;;1.10;;
43803;SDS011;29430;52.924;-2.388;2023-07-31T11:07:20;6.55;;;1.10;;
43803;SDS011;29430;52.924;-2.388;2023-07-31T11:12:12;8.38;;;1.30;;
43803;SDS011;29430;52.924;-2.388;2023-07-31T11:17:07;5.07;;;0.90;;
43803;SDS011;29430;52.924;-2.388;2023-07-31T11:21:59;5.60;;;1.30;;
43803;SDS011;29430;52.924;-2.388;2023-07-31T11:26:51;7.45;;;1.55;;
43803;SDS011;29430;52.924;-2.388;2023-07-31T11:31:44;5.32;;;1.27;;
43803;SDS011;29430;52.924;-2.388;2023-07-31T11:36:36;6.47;;;1.05;;
43803;SDS011;29430;52.924;-2.388;2023-07-31T11:41:28;7.63;;;1.25;;
43803;SDS011;29430;52.924;-2.388;2023-07-31T11:46:20;9.57;;;1.65;;
43803;SDS011;29430;52.924;-2.388;2023-07-31T11:51:12;8.93;;;1.38;;
43803;SDS011;29430;52.924;-2.388;2023-07-31T11:56:06;6.20;;;1.08;;
43803;SDS011;29430;52.924;-2.388;2023-07-31T12:01:00;9.23;;;1.42;;
43803;SDS011;29430;52.924;-2.388;2023-07-31T12:05:52;8.98;;;1.35;;
43803;SDS011;29430;52.924;-2.388;2023-07-31T12:10:45;7.57;;;1.38;;
43803;SDS011;29430;52.924;-2.388;2023-07-31T12:15:42;6.10;;;1.13;;
43803;SDS011;29430;52.924;-2.388;2023-07-31T12:20:35;10.32;;;1.45;;
43803;SDS011;29430;52.924;-2.388;2023-07-31T12:30:43;8.82;;;1.38;;
43803;SDS011;29430;52.924;-2.388;2023-07-31T12:35:37;8.38;;;1.23;;
43803;SDS011;29430;52.924;-2.388;2023-07-31T12:40:30;8.15;;;1.42;;
43803;SDS011;29430;52.924;-2.388;2023-07-31T12:45:23;4.65;;;1.02;;
43803;SDS011;29430;52.924;-2.388;2023-07-31T12:50:15;10.73;;;1.10;;
43803;SDS011;29430;52.924;-2.388;2023-07-31T12:55:07;9.60;;;1.30;;
43803;SDS011;29430;52.924;-2.388;2023-07-31T12:59:58;6.82;;;1.08;;
43803;SDS011;29430;52.924;-2.388;2023-07-31T13:04:50;5.80;;;1.35;;
43803;SDS011;29430;52.924;-2.388;2023-07-31T13:09:42;7.50;;;1.23;;
43803;SDS011;29430;52.924;-2.388;2023-07-31T13:14:34;7.15;;;1.30;;
43803;SDS011;29430;52.924;-2.388;2023-07-31T13:19:25;7.88;;;1.30;;
43803;SDS011;29430;52.924;-2.388;2023-07-31T13:24:17;7.65;;;1.17;;
43803;SDS011;29430;52.924;-2.388;2023-07-31T13:29:09;6.35;;;1.10;;
43803;SDS011;29430;52.924;-2.388;2023-07-31T13:34:02;11.48;;;1.55;;
43803;SDS011;29430;52.924;-2.388;2023-07-31T13:38:54;8.88;;;1.42;;
43803;SDS011;29430;52.924;-2.388;2023-07-31T13:43:48;6.43;;;1.20;;
43803;SDS011;29430;52.924;-2.388;2023-07-31T13:48:39;7.88;;;1.20;;
43803;SDS011;29430;52.924;-2.388;2023-07-31T13:53:31;7.75;;;1.02;;
43803;SDS011;29430;52.924;-2.388;2023-07-31T13:58:23;8.40;;;1.08;;
43803;SDS011;29430;52.924;-2.388;2023-07-31T14:03:14;8.18;;;0.70;;
43803;SDS011;29430;52.924;-2.388;2023-07-31T14:08:06;5.70;;;0.70;;
43803;SDS011;29430;52.924;-2.388;2023-07-31T14:12:58;3.90;;;0.55;;
43803;SDS011;29430;52.924;-2.388;2023-07-31T14:17:50;3.45;;;0.57;;
43803;SDS011;29430;52.924;-2.388;2023-07-31T14:22:42;3.25;;;0.63;;
43803;SDS011;29430;52.924;-2.388;2023-07-31T14:27:33;4.45;;;0.60;;
43803;SDS011;29430;52.924;-2.388;2023-07-31T14:32:25;5.55;;;0.80;;
43803;SDS011;29430;52.924;-2.388;2023-07-31T14:37:17;4.75;;;0.80;;
43803;SDS011;29430;52.924;-2.388;2023-07-31T14:42:09;7.13;;;0.90;;
43803;SDS011;29430;52.924;-2.388;2023-07-31T14:47:01;4.20;;;0.82;;
43803;SDS011;29430;52.924;-2.388;2023-07-31T14:51:52;4.72;;;0.77;;
43803;SDS011;29430;52.924;-2.388;2023-07-31T14:56:44;5.55;;;0.93;;
43803;SDS011;29430;52.924;-2.388;2023-07-31T15:01:36;5.30;;;0.80;;
43803;SDS011;29430;52.924;-2.388;2023-07-31T15:06:28;5.25;;;0.90;;
43803;SDS011;29430;52.924;-2.388;2023-07-31T15:11:19;4.65;;;0.60;;
43803;SDS011;29430;52.924;-2.388;2023-07-31T15:16:11;5.88;;;1.10;;
43803;SDS011;29430;52.924;-2.388;2023-07-31T15:21:04;5.70;;;1.08;;
43803;SDS011;29430;52.924;-2.388;2023-07-31T15:25:58;7.68;;;1.15;;
43803;SDS011;29430;52.924;-2.388;2023-07-31T15:30:49;7.40;;;1.30;;
43803;SDS011;29430;52.924;-2.388;2023-07-31T15:35:41;6.30;;;0.80;;
43803;SDS011;29430;52.924;-2.388;2023-07-31T15:40:34;4.50;;;0.90;;
43803;SDS011;29430;52.924;-2.388;2023-07-31T15:45:26;5.50;;;0.90;;
43803;SDS011;29430;52.924;-2.388;2023-07-31T15:50:17;5.32;;;1.00;;
43803;SDS011;29430;52.924;-2.388;2023-07-31T15:55:10;3.92;;;0.80;;
43803;SDS011;29430;52.924;-2.388;2023-07-31T16:00:02;5.72;;;0.60;;
43803;SDS011;29430;52.924;-2.388;2023-07-31T16:04:54;7.78;;;1.30;;
43803;SDS011;29430;52.924;-2.388;2023-07-31T16:09:46;6.57;;;0.90;;
43803;SDS011;29430;52.924;-2.388;2023-07-31T16:14:37;7.75;;;1.20;;
43803;SDS011;29430;52.924;-2.388;2023-07-31T16:19:29;3.35;;;0.73;;
43803;SDS011;29430;52.924;-2.388;2023-07-31T16:24:21;8.10;;;0.82;;
43803;SDS011;29430;52.924;-2.388;2023-07-31T16:29:13;5.15;;;0.77;;
43803;SDS011;29430;52.924;-2.388;2023-07-31T16:34:04;5.80;;;0.90;;
43803;SDS011;29430;52.924;-2.388;2023-07-31T16:38:56;4.05;;;0.50;;
43803;SDS011;29430;52.924;-2.388;2023-07-31T16:43:48;2.20;;;0.50;;
43803;SDS011;29430;52.924;-2.388;2023-07-31T16:48:39;4.70;;;0.68;;
43803;SDS011;29430;52.924;-2.388;2023-07-31T16:53:31;2.13;;;0.52;;
43803;SDS011;29430;52.924;-2.388;2023-07-31T16:58:23;2.38;;;0.50;;
43803;SDS011;29430;52.924;-2.388;2023-07-31T17:03:14;6.45;;;0.47;;
43803;SDS011;29430;52.924;-2.388;2023-07-31T17:08:06;6.38;;;0.60;;
43803;SDS011;29430;52.924;-2.388;2023-07-31T17:12:58;6.45;;;0.60;;
43803;SDS011;29430;52.924;-2.388;2023-07-31T17:17:51;4.40;;;0.47;;
43803;SDS011;29430;52.924;-2.388;2023-07-31T17:22:46;4.68;;;0.80;;
43803;SDS011;29430;52.924;-2.388;2023-07-31T17:27:39;5.47;;;0.60;;
43803;SDS011;29430;52.924;-2.388;2023-07-31T17:32:31;4.45;;;1.10;;
43803;SDS011;29430;52.924;-2.388;2023-07-31T17:37:23;6.15;;;0.80;;
43803;SDS011;29430;52.924;-2.388;2023-07-31T17:42:15;5.43;;;0.73;;
43803;SDS011;29430;52.924;-2.388;2023-07-31T17:47:06;6.43;;;0.80;;
43803;SDS011;29430;52.924;-2.388;2023-07-31T17:51:58;6.20;;;1.00;;
43803;SDS011;29430;52.924;-2.388;2023-07-31T17:56:52;6.68;;;0.65;;
43803;SDS011;29430;52.924;-2.388;2023-07-31T18:01:44;4.65;;;0.70;;
43803;SDS011;29430;52.924;-2.388;2023-07-31T18:06:36;10.13;;;1.00;;
43803;SDS011;29430;52.924;-2.388;2023-07-31T18:11:28;8.68;;;1.08;;
43803;SDS011;29430;52.924;-2.388;2023-07-31T18:16:21;11.85;;;1.48;;
43803;SDS011;29430;52.924;-2.388;2023-07-31T18:21:13;7.50;;;1.20;;
43803;SDS011;29430;52.924;-2.388;2023-07-31T18:26:05;9.95;;;1.10;;
43803;SDS011;29430;52.924;-2.388;2023-07-31T18:30:57;6.63;;;0.80;;
43803;SDS011;29430;52.924;-2.388;2023-07-31T18:35:49;5.63;;;0.63;;
43803;SDS011;29430;52.924;-2.388;2023-07-31T18:40:41;6.57;;;1.00;;
43803;SDS011;29430;52.924;-2.388;2023-07-31T18:45:33;8.30;;;1.20;;
43803;SDS011;29430;52.924;-2.388;2023-07-31T18:50:24;7.25;;;1.00;;
43803;SDS011;29430;52.924;-2.388;2023-07-31T18:55:16;9.13;;;1.10;;
43803;SDS011;29430;52.924;-2.388;2023-07-31T19:00:08;6.53;;;1.58;;
43803;SDS011;29430;52.924;-2.388;2023-07-31T19:05:01;7.63;;;1.92;;
43803;SDS011;29430;52.924;-2.388;2023-07-31T19:09:54;6.32;;;1.30;;
43803;SDS011;29430;52.924;-2.388;2023-07-31T19:15:05;5.95;;;0.90;;
43803;SDS011;29430;52.924;-2.388;2023-07-31T19:19:57;4.43;;;0.70;;
43803;SDS011;29430;52.924;-2.388;2023-07-31T19:24:49;8.00;;;0.80;;
43803;SDS011;29430;52.924;-2.388;2023-07-31T19:29:41;6.35;;;0.75;;
43803;SDS011;29430;52.924;-2.388;2023-07-31T19:34:32;2.92;;;0.60;;
43803;SDS011;29430;52.924;-2.388;2023-07-31T19:39:24;3.92;;;0.60;;
43803;SDS011;29430;52.924;-2.388;2023-07-31T19:44:16;5.82;;;0.80;;
43803;SDS011;29430;52.924;-2.388;2023-07-31T19:49:08;4.20;;;0.60;;
43803;SDS011;29430;52.924;-2.388;2023-07-31T19:54:00;4.50;;;0.93;;
43803;SDS011;29430;52.924;-2.388;2023-07-31T19:58:52;5.70;;;1.00;;
43803;SDS011;29430;52.924;-2.388;2023-07-31T20:03:44;5.30;;;1.10;;
43803;SDS011;29430;52.924;-2.388;2023-07-31T20:08:35;5.88;;;0.75;;
43803;SDS011;29430;52.924;-2.388;2023-07-31T20:13:27;6.25;;;0.75;;
43803;SDS011;29430;52.924;-2.388;2023-07-31T20:18:20;5.55;;;0.68;;
43803;SDS011;29430;52.924;-2.388;2023-07-31T20:23:12;5.35;;;0.60;;
43803;SDS011;29430;52.924;-2.388;2023-07-31T20:28:04;4.95;;;0.82;;
43803;SDS011;29430;52.924;-2.388;2023-07-31T20:32:55;3.38;;;0.60;;
43803;SDS011;29430;52.924;-2.388;2023-07-31T20:37:48;4.32;;;0.60;;
43803;SDS011;29430;52.924;-2.388;2023-07-31T20:42:39;3.72;;;0.75;;
43803;SDS011;29430;52.924;-2.388;2023-07-31T20:47:31;3.60;;;0.65;;
43803;SDS011;29430;52.924;-2.388;2023-07-31T20:52:23;2.75;;;0.55;;
43803;SDS011;29430;52.924;-2.388;2023-07-31T20:57:15;4.78;;;0.70;;
43803;SDS011;29430;52.924;-2.388;2023-07-31T21:02:06;4.45;;;0.55;;
43803;SDS011;29430;52.924;-2.388;2023-07-31T21:07:00;3.75;;;0.60;;
43803;SDS011;29430;52.924;-2.388;2023-07-31T21:11:52;2.90;;;0.52;;
43803;SDS011;29430;52.924;-2.388;2023-07-31T21:16:44;3.03;;;0.50;;
43803;SDS011;29430;52.924;-2.388;2023-07-31T21:21:35;2.60;;;0.60;;
43803;SDS011;29430;52.924;-2.388;2023-07-31T21:26:27;3.92;;;0.60;;
43803;SDS011;29430;52.924;-2.388;2023-07-31T21:31:19;6.53;;;0.80;;
43803;SDS011;29430;52.924;-2.388;2023-07-31T21:36:10;4.93;;;0.80;;
43803;SDS011;29430;52.924;-2.388;2023-07-31T21:41:02;5.28;;;0.80;;
43803;SDS011;29430;52.924;-2.388;2023-07-31T21:45:54;2.78;;;0.63;;
43803;SDS011;29430;52.924;-2.388;2023-07-31T21:50:46;3.92;;;0.70;;
43803;SDS011;29430;52.924;-2.388;2023-07-31T21:55:37;4.28;;;0.70;;
43803;SDS011;29430;52.924;-2.388;2023-07-31T22:00:29;5.88;;;0.77;;
43803;SDS011;29430;52.924;-2.388;2023-07-31T22:05:21;6.97;;;0.73;;
43803;SDS011;29430;52.924;-2.388;2023-07-31T22:10:13;7.95;;;0.93;;
43803;SDS011;29430;52.924;-2.388;2023-07-31T22:15:04;5.28;;;0.70;;
43803;SDS011;29430;52.924;-2.388;2023-07-31T22:19:56;5.90;;;0.80;;
43803;SDS011;29430;52.924;-2.388;2023-07-31T22:24:48;3.92;;;0.85;;
43803;SDS011;29430;52.924;-2.388;2023-07-31T22:29:40;6.13;;;1.17;;
43803;SDS011;29430;52.924;-2.388;2023-07-31T22:34:33;3.17;;;0.65;;
43803;SDS011;29430;52.924;-2.388;2023-07-31T22:39:27;4.28;;;0.60;;
43803;SDS011;29430;52.924;-2.388;2023-07-31T22:44:19;5.53;;;0.80;;
43803;SDS011;29430;52.924;-2.388;2023-07-31T22:49:11;6.75;;;1.40;;
43803;SDS011;29430;52.924;-2.388;2023-07-31T22:54:02;3.17;;;0.52;;
43803;SDS011;29430;52.924;-2.388;2023-07-31T22:58:55;5.97;;;0.82;;
43803;SDS011;29430;52.924;-2.388;2023-07-31T23:03:47;5.43;;;1.15;;
43803;SDS011;29430;52.924;-2.388;2023-07-31T23:08:39;2.90;;;0.60;;
43803;SDS011;29430;52.924;-2.388;2023-07-31T23:13:31;3.92;;;0.50;;
43803;SDS011;29430;52.924;-2.388;2023-07-31T23:18:24;4.45;;;0.60;;
43803;SDS011;29430;52.924;-2.388;2023-07-31T23:23:15;3.53;;;0.70;;
43803;SDS011;29430;52.924;-2.388;2023-07-31T23:28:07;4.13;;;0.63;;
43803;SDS011;29430;52.924;-2.388;2023-07-31T23:32:59;4.05;;;0.68;;
43803;SDS011;29430;52.924;-2.388;2023-07-31T23:37:51;6.10;;;0.70;;
43803;SDS011;29430;52.924;-2.388;2023-07-31T23:42:43;2.70;;;0.45;;
43803;SDS011;29430;52.924;-2.388;2023-07-31T23:47:34;4.00;;;0.60;;
43803;SDS011;29430;52.924;-2.388;2023-07-31T23:52:26;8.18;;;0.88;;
43803;SDS011;29430;52.924;-2.388;2023-07-31T23:57:18;5.53;;;0.60;;
